Time;durP1;ratioP1;P1;durP2;ratioP2;P2;SDS_P1;SDS_P2;PMS_P1;PMS_P2;Temp;Humidity;BMP_temperature;BMP_pressure;BME280_temperature;BME280_humidity;BME280_pressure;Samples;Min_cycle;Max_cycle;Signal;HPM_P1;HPM_P2
2022/03/07 00:00:00;;;;;;;6.40;3.75;;;;;;;-2.98;78.19;99486.06;4188057;28;20048;-71
2022/03/07 00:02:01;;;;;;;6.20;3.97;;;;;;;-2.96;78.17;99483.06;4188521;28;20048;-71
2022/03/07 00:04:02;;;;;;;10.60;4.40;;;;;;;-2.98;78.30;99483.34;4195708;28;20028;-71
2022/03/07 00:06:05;;;;;;;5.07;3.97;;;;;;;-2.96;77.63;99478.47;4202343;28;20422;-71
2022/03/07 00:08:05;;;;;;;6.07;4.40;;;;;;;-2.98;77.73;99477.09;4187707;28;20028;-71
2022/03/07 00:10:05;;;;;;;5.90;3.95;;;;;;;-2.97;77.88;99473.34;4188515;28;20103;-71
2022/03/07 00:12:06;;;;;;;8.20;4.03;;;;;;;-2.97;78.28;99481.44;4195393;28;20447;-71
2022/03/07 00:14:07;;;;;;;8.25;4.40;;;;;;;-2.97;77.92;99482.25;4204098;28;20031;-71
2022/03/07 00:16:07;;;;;;;7.60;4.22;;;;;;;-3.00;78.02;99476.56;4187887;28;20051;-71
2022/03/07 00:18:07;;;;;;;5.32;3.85;;;;;;;-2.97;78.34;99473.34;4198469;28;20115;-71
2022/03/07 00:20:08;;;;;;;6.82;4.18;;;;;;;-2.99;78.24;99483.59;4202484;28;20035;-71
2022/03/07 00:22:09;;;;;;;6.05;4.30;;;;;;;-2.97;77.96;99482.25;4191938;28;20184;-71
2022/03/07 00:24:10;;;;;;;5.90;3.97;;;;;;;-2.96;78.51;99483.88;4202239;28;20085;-71
2022/03/07 00:26:10;;;;;;;5.75;4.18;;;;;;;-2.95;78.72;99477.38;4203545;28;20024;-71
2022/03/07 00:28:10;;;;;;;6.50;4.20;;;;;;;-2.94;78.29;99473.59;4203715;28;20062;-71
2022/03/07 00:30:11;;;;;;;7.05;4.38;;;;;;;-2.91;78.60;99477.66;4201118;28;20031;-71
2022/03/07 00:32:11;;;;;;;7.88;4.43;;;;;;;-2.93;78.34;99472.53;4201786;28;20047;-71
2022/03/07 00:34:12;;;;;;;6.30;4.30;;;;;;;-2.96;78.29;99473.06;4196769;28;20020;-71
2022/03/07 00:36:13;;;;;;;7.25;4.15;;;;;;;-2.96;78.73;99472.25;4203425;28;20379;-71
2022/03/07 00:38:14;;;;;;;6.85;5.07;;;;;;;-2.98;78.52;99463.56;4201474;28;20032;-71
2022/03/07 00:40:14;;;;;;;7.15;4.53;;;;;;;-2.99;78.01;99472.75;4195982;28;20025;-71
2022/03/07 00:42:15;;;;;;;7.35;4.07;;;;;;;-2.98;78.23;99475.22;4203381;28;20032;-71
2022/03/07 00:44:15;;;;;;;5.82;4.03;;;;;;;-2.98;77.74;99475.22;4194480;28;20035;-71
2022/03/07 00:46:16;;;;;;;7.45;4.60;;;;;;;-2.96;77.88;99470.34;4188040;28;20036;-71
2022/03/07 00:48:16;;;;;;;6.35;3.78;;;;;;;-2.96;77.93;99467.66;4187151;28;20344;-71
2022/03/07 00:50:17;;;;;;;6.03;4.30;;;;;;;-2.96;78.45;99462.22;4188045;28;20059;-71
2022/03/07 00:52:17;;;;;;;5.70;4.30;;;;;;;-2.97;78.87;99473.34;4187691;28;20051;-71
2022/03/07 00:54:17;;;;;;;7.30;3.88;;;;;;;-2.98;78.70;99469.81;4187562;28;20033;-71
2022/03/07 00:56:18;;;;;;;6.05;4.05;;;;;;;-2.97;78.44;99471.44;4188505;28;20032;-70
2022/03/07 00:58:18;;;;;;;5.00;3.53;;;;;;;-2.97;77.47;99478.75;4191384;28;20425;-71
2022/03/07 01:00:19;;;;;;;5.93;3.97;;;;;;;-2.93;78.07;99479.81;4203140;28;20051;-71
2022/03/07 01:02:19;;;;;;;6.43;4.05;;;;;;;-2.95;78.23;99477.38;4202298;28;20379;-71
2022/03/07 01:04:19;;;;;;;6.35;4.72;;;;;;;-2.95;79.01;99485.50;4203057;28;20365;-71
2022/03/07 01:06:20;;;;;;;9.05;4.60;;;;;;;-2.94;78.61;99479.00;4192085;28;20152;-71
2022/03/07 01:08:20;;;;;;;5.95;4.15;;;;;;;-2.96;78.56;99481.19;4186466;28;20049;-71
2022/03/07 01:10:21;;;;;;;5.57;4.00;;;;;;;-2.91;78.90;99483.06;4188898;28;20148;-71
2022/03/07 01:12:21;;;;;;;7.47;4.28;;;;;;;-2.91;78.82;99488.50;4195341;28;20032;-71
2022/03/07 01:14:21;;;;;;;6.70;4.65;;;;;;;-2.93;79.27;99483.34;4187315;28;20047;-71
2022/03/07 01:16:22;;;;;;;7.82;4.60;;;;;;;-2.90;78.97;99482.00;4187507;28;20044;-71
2022/03/07 01:18:22;;;;;;;5.57;4.07;;;;;;;-2.92;79.08;99479.56;4186598;28;20044;-71
2022/03/07 01:20:22;;;;;;;7.40;4.88;;;;;;;-2.92;78.74;99478.75;4187101;28;20420;-71
2022/03/07 01:22:23;;;;;;;6.80;4.50;;;;;;;-2.94;78.96;99479.00;4197745;28;20059;-71
2022/03/07 01:24:23;;;;;;;5.85;4.30;;;;;;;-2.95;78.88;99473.88;4194192;28;20044;-71
2022/03/07 01:26:23;;;;;;;9.07;4.72;;;;;;;-2.95;79.07;99473.88;4185896;28;20037;-71
2022/03/07 01:28:24;;;;;;;7.97;4.70;;;;;;;-2.94;78.83;99468.19;4186757;28;20059;-71
2022/03/07 01:30:24;;;;;;;5.97;4.25;;;;;;;-2.95;79.86;99471.16;4186933;28;20045;-71
2022/03/07 01:32:25;;;;;;;7.18;4.55;;;;;;;-2.96;79.50;99464.94;4200315;28;20116;-71
2022/03/07 01:34:25;;;;;;;5.97;3.83;;;;;;;-2.96;79.62;99459.53;4186786;28;20086;-71
2022/03/07 01:36:25;;;;;;;5.47;4.13;;;;;;;-2.98;79.46;99453.56;4187796;28;20123;-71
2022/03/07 01:38:26;;;;;;;6.20;4.32;;;;;;;-2.97;79.90;99459.78;4201755;28;20044;-71
2022/03/07 01:40:26;;;;;;;8.20;4.18;;;;;;;-2.98;79.56;99469.81;4201839;28;20048;-71
2022/03/07 01:42:27;;;;;;;6.00;4.22;;;;;;;-3.00;80.26;99455.69;4192974;28;20094;-71
2022/03/07 01:44:28;;;;;;;7.93;3.80;;;;;;;-3.02;80.25;99455.16;4186905;28;20052;-71
2022/03/07 01:46:31;;;;;;;8.93;4.22;;;;;;;-3.01;80.08;99456.78;4189326;28;20048;-71
2022/03/07 01:48:31;;;;;;;6.40;4.38;;;;;;;-2.97;80.17;99462.50;4186820;28;20078;-70
2022/03/07 01:50:31;;;;;;;5.78;4.00;;;;;;;-3.00;80.26;99455.69;4187466;28;20052;-70
2022/03/07 01:52:34;;;;;;;7.55;4.40;;;;;;;-2.99;80.15;99451.91;4196359;28;20501;-71
2022/03/07 01:54:34;;;;;;;7.60;4.28;;;;;;;-2.99;80.38;99451.09;4201510;28;20048;-71
2022/03/07 01:56:34;;;;;;;5.93;4.07;;;;;;;-2.99;80.10;99449.19;4202154;28;20040;-71
2022/03/07 01:58:35;;;;;;;10.27;4.07;;;;;;;-2.97;79.38;99443.53;4202286;28;20036;-71
2022/03/07 02:00:35;;;;;;;5.68;3.90;;;;;;;-3.00;79.54;99430.50;4200536;28;20048;-71
2022/03/07 02:02:36;;;;;;;5.03;4.07;;;;;;;-3.01;80.05;99432.41;4202368;28;20853;-71
2022/03/07 02:04:39;;;;;;;5.78;3.97;;;;;;;-3.01;79.82;99445.94;4195481;28;20044;-71
2022/03/07 02:06:40;;;;;;;6.93;4.38;;;;;;;-3.02;80.40;99443.50;4185648;28;20033;-71
2022/03/07 02:08:41;;;;;;;5.80;3.90;;;;;;;-3.05;80.06;99435.94;4199448;28;20051;-70
2022/03/07 02:10:42;;;;;;;5.32;3.78;;;;;;;-3.05;79.75;99436.75;4200711;28;20038;-70
2022/03/07 02:12:42;;;;;;;5.95;4.18;;;;;;;-3.05;79.77;99436.75;4189509;28;20037;-70
2022/03/07 02:14:42;;;;;;;6.25;3.85;;;;;;;-3.03;80.55;99445.41;4188123;28;20045;-70
2022/03/07 02:16:44;;;;;;;5.60;4.28;;;;;;;-3.03;80.83;99439.19;4201406;28;20054;-71
2022/03/07 02:18:45;;;;;;;6.50;4.47;;;;;;;-3.03;80.35;99436.47;4201617;28;20079;-70
2022/03/07 02:20:45;;;;;;;6.07;4.13;;;;;;;-3.03;80.52;99433.78;4196757;28;20044;-71
2022/03/07 02:22:46;;;;;;;6.60;4.38;;;;;;;-3.03;79.85;99439.19;4186599;28;20298;-71
2022/03/07 02:24:46;;;;;;;5.13;3.55;;;;;;;-3.01;80.27;99442.44;4188109;28;20048;-71
2022/03/07 02:27:05;;;;;;;6.20;3.88;;;;;;;-2.99;80.28;99437.56;4185825;28;20036;-71
2022/03/07 02:29:08;;;;;;;6.40;4.45;;;;;;;-3.04;79.90;99430.25;4186658;28;20733;-71
2022/03/07 02:31:10;;;;;;;5.75;4.18;;;;;;;-3.01;80.12;99437.84;4201521;28;20056;-71
2022/03/07 02:33:12;;;;;;;6.28;4.22;;;;;;;-3.02;79.83;99436.22;4186694;28;20040;-71
2022/03/07 02:35:14;;;;;;;5.20;3.90;;;;;;;-3.03;80.14;99437.28;4186425;28;20043;-71
2022/03/07 02:37:14;;;;;;;6.10;3.95;;;;;;;-3.02;79.87;99438.09;4186164;28;20063;-71
2022/03/07 02:39:15;;;;;;;7.20;4.35;;;;;;;-3.04;80.00;99432.16;4186151;28;20044;-70
2022/03/07 02:41:15;;;;;;;5.85;4.05;;;;;;;-3.04;80.25;99430.25;4185857;28;20068;-70
2022/03/07 02:43:16;;;;;;;6.88;3.95;;;;;;;-3.02;80.28;99436.22;4186278;28;20440;-70
2022/03/07 02:45:16;;;;;;;5.40;4.20;;;;;;;-3.05;79.97;99431.34;4190202;28;20032;-71
2022/03/07 02:47:16;;;;;;;5.18;4.00;;;;;;;-3.03;80.83;99437.28;4201796;28;20434;-71
2022/03/07 02:49:17;;;;;;;7.53;4.35;;;;;;;-3.02;80.21;99435.38;4199836;28;20062;-71
2022/03/07 02:51:17;;;;;;;5.97;4.10;;;;;;;-3.01;79.80;99439.72;4201353;28;20059;-70
2022/03/07 02:53:17;;;;;;;8.35;3.92;;;;;;;-3.02;80.30;99438.91;4195481;28;20041;-71
2022/03/07 02:55:18;;;;;;;4.55;3.70;;;;;;;-3.02;80.19;99436.22;4186150;28;20523;-71
2022/03/07 02:57:18;;;;;;;4.35;3.72;;;;;;;-3.02;79.96;99441.63;4185241;28;20484;-71
2022/03/07 02:59:18;;;;;;;6.13;4.10;;;;;;;-3.00;80.08;99434.03;4199377;28;20036;-71
2022/03/07 03:01:19;;;;;;;6.55;4.28;;;;;;;-2.97;80.47;99436.22;4186633;28;20473;-71
2022/03/07 03:03:19;;;;;;;8.00;4.53;;;;;;;-2.98;79.90;99436.47;4186052;28;20210;-71
2022/03/07 03:05:20;;;;;;;9.68;5.70;;;;;;;-2.98;80.13;99439.19;4184508;28;20063;-71
2022/03/07 03:07:20;;;;;;;9.25;5.50;;;;;;;-2.99;80.43;99437.56;4196862;28;20052;-71
2022/03/07 03:09:21;;;;;;;7.22;4.88;;;;;;;-3.00;80.75;99436.75;4190207;28;20279;-71
2022/03/07 03:11:21;;;;;;;6.20;3.78;;;;;;;-3.03;80.32;99434.59;4192922;28;20032;-71
2022/03/07 03:13:22;;;;;;;7.43;4.78;;;;;;;-3.03;80.37;99434.59;4186250;28;20529;-71
2022/03/07 03:15:23;;;;;;;9.30;5.75;;;;;;;-3.02;80.83;99441.63;4202066;28;20404;-71
2022/03/07 03:17:24;;;;;;;13.70;6.43;;;;;;;-3.03;81.19;99445.41;4200005;28;20044;-71
2022/03/07 03:19:25;;;;;;;16.02;7.50;;;;;;;-3.02;81.17;99438.09;4185513;28;20089;-71
2022/03/07 03:21:25;;;;;;;12.30;6.95;;;;;;;-3.04;81.74;99445.69;4186423;28;20082;-71
2022/03/07 03:23:25;;;;;;;9.80;5.80;;;;;;;-3.05;81.84;99444.88;4185819;28;20477;-71
2022/03/07 03:25:26;;;;;;;7.47;4.60;;;;;;;-3.06;81.60;99442.41;4186163;28;20123;-71
2022/03/07 03:27:26;;;;;;;19.77;9.98;;;;;;;-3.05;82.42;99442.16;4185535;28;20040;-71
2022/03/07 03:29:26;;;;;;;18.52;8.48;;;;;;;-3.06;83.03;99439.69;4185910;28;20070;-71
2022/03/07 03:31:27;;;;;;;16.88;8.50;;;;;;;-3.10;82.54;99431.31;4186125;28;20049;-71
2022/03/07 03:33:27;;;;;;;15.98;8.32;;;;;;;-3.09;82.47;99430.22;4185509;28;20303;-71
2022/03/07 03:35:27;;;;;;;18.77;9.10;;;;;;;-3.10;82.93;99434.00;4185792;28;20055;-71
2022/03/07 03:37:28;;;;;;;14.85;8.25;;;;;;;-3.09;82.75;99427.50;4185291;28;20059;-71
2022/03/07 03:39:28;;;;;;;12.85;7.05;;;;;;;-3.09;82.00;99434.81;4185516;28;20041;-71
2022/03/07 03:41:28;;;;;;;11.15;6.53;;;;;;;-3.08;81.89;99434.56;4201446;28;20496;-71
2022/03/07 03:43:29;;;;;;;14.77;5.75;;;;;;;-3.10;82.07;99436.72;4201047;28;20044;-71
2022/03/07 03:45:30;;;;;;;11.40;6.70;;;;;;;-3.10;82.79;99444.84;4200200;28;20123;-71
2022/03/07 03:47:31;;;;;;;14.27;6.72;;;;;;;-3.12;82.63;99444.28;4200489;28;20086;-70
2022/03/07 03:49:32;;;;;;;17.40;8.40;;;;;;;-3.10;82.44;99452.97;4190703;28;20522;-71
2022/03/07 03:51:34;;;;;;;21.10;9.15;;;;;;;-3.06;82.74;99445.94;4202886;28;20033;-71
2022/03/07 03:53:34;;;;;;;18.77;8.70;;;;;;;-3.07;83.06;99444.28;4193706;28;20051;-71
2022/03/07 03:55:35;;;;;;;12.77;7.40;;;;;;;-3.10;83.13;99439.41;4188969;28;20507;-71
2022/03/07 03:57:35;;;;;;;16.75;8.10;;;;;;;-3.11;82.88;99441.31;4188113;28;20055;-71
2022/03/07 03:59:35;;;;;;;15.82;7.78;;;;;;;-3.10;83.08;99434.00;4188564;28;20037;-71
2022/03/07 04:01:35;;;;;;;13.43;6.93;;;;;;;-3.12;83.76;99436.19;4187333;28;20086;-71
2022/03/07 04:03:36;;;;;;;10.85;6.00;;;;;;;-3.12;82.93;99449.72;4191577;28;20070;-71
2022/03/07 04:05:36;;;;;;;10.38;5.57;;;;;;;-3.08;82.81;99445.38;4192868;28;20040;-71
2022/03/07 04:07:37;;;;;;;11.98;6.22;;;;;;;-3.05;82.93;99449.47;4197145;28;20370;-71
2022/03/07 04:09:38;;;;;;;10.13;5.57;;;;;;;-3.05;82.20;99452.19;4193403;28;20037;-71
2022/03/07 04:11:38;;;;;;;12.60;5.90;;;;;;;-3.04;82.25;99446.50;4194939;28;20099;-71
2022/03/07 04:13:39;;;;;;;10.57;5.63;;;;;;;-3.04;81.76;99454.63;4192539;28;20032;-71
2022/03/07 04:15:39;;;;;;;7.65;4.53;;;;;;;-3.04;81.68;99448.38;4188428;28;20051;-71
2022/03/07 04:17:41;;;;;;;7.35;4.90;;;;;;;-3.05;82.64;99441.34;4188727;28;20037;-71
2022/03/07 04:19:42;;;;;;;6.95;4.25;;;;;;;-3.08;82.22;99448.09;4189436;28;20279;-71
2022/03/07 04:21:43;;;;;;;7.43;4.47;;;;;;;-3.11;82.55;99448.63;4194177;28;20041;-71
2022/03/07 04:23:43;;;;;;;7.03;4.22;;;;;;;-3.11;82.45;99441.31;4188182;28;20419;-71
2022/03/07 04:25:44;;;;;;;6.65;4.30;;;;;;;-3.13;83.27;99442.66;4188404;28;20076;-71
2022/03/07 04:27:44;;;;;;;7.93;4.50;;;;;;;-3.13;82.56;99450.78;4187441;28;20120;-71
2022/03/07 04:29:44;;;;;;;8.23;4.50;;;;;;;-3.12;82.51;99447.00;4185138;28;20045;-71
2022/03/07 04:31:45;;;;;;;6.38;4.10;;;;;;;-3.13;82.24;99448.91;4193475;28;20586;-71
2022/03/07 04:33:45;;;;;;;6.25;4.03;;;;;;;-3.14;82.57;99460.81;4192167;28;20123;-71
2022/03/07 04:35:45;;;;;;;8.00;5.43;;;;;;;-3.13;83.27;99456.22;4192062;28;20040;-71
2022/03/07 04:37:46;;;;;;;16.23;7.45;;;;;;;-3.14;83.65;99454.59;4190999;28;20477;-71
2022/03/07 04:39:47;;;;;;;20.80;9.38;;;;;;;-3.06;83.21;99458.66;4189957;28;20044;-71
2022/03/07 04:41:47;;;;;;;18.77;7.88;;;;;;;-3.07;83.57;99462.44;4188974;28;20079;-71
2022/03/07 04:43:47;;;;;;;21.13;8.15;;;;;;;-3.08;83.82;99460.81;4189788;28;20052;-71
2022/03/07 04:45:48;;;;;;;14.68;7.10;;;;;;;-3.10;84.26;99452.97;4187418;28;20037;-71
2022/03/07 04:47:49;;;;;;;14.55;7.38;;;;;;;-3.12;84.34;99457.84;4190887;28;20423;-71
2022/03/07 04:49:50;;;;;;;13.38;6.53;;;;;;;-3.14;84.66;99460.00;4192777;28;20508;-71
2022/03/07 04:51:50;;;;;;;14.07;7.15;;;;;;;-3.15;85.22;99461.03;4188012;28;20044;-71
2022/03/07 04:53:50;;;;;;;11.57;6.25;;;;;;;-3.16;85.71;99462.13;4187804;28;20482;-71
2022/03/07 04:55:51;;;;;;;14.73;6.85;;;;;;;-3.21;85.95;99462.13;4186670;28;20059;-71
2022/03/07 04:57:51;;;;;;;12.15;6.55;;;;;;;-3.16;85.92;99467.53;4186275;28;20049;-71
2022/03/07 04:59:51;;;;;;;12.65;6.28;;;;;;;-3.18;86.31;99469.72;4186709;28;20078;-71
2022/03/07 05:01:52;;;;;;;11.15;5.85;;;;;;;-3.20;86.20;99472.69;4187981;28;20122;-71
2022/03/07 05:03:52;;;;;;;11.18;6.85;;;;;;;-3.20;85.95;99461.84;4189405;28;20419;-71
2022/03/07 05:05:52;;;;;;;9.98;5.97;;;;;;;-3.18;85.78;99469.72;4187625;28;20047;-71
2022/03/07 05:07:53;;;;;;;10.88;6.05;;;;;;;-3.15;86.46;99474.59;4186960;28;20052;-71
2022/03/07 05:09:53;;;;;;;7.80;4.63;;;;;;;-3.16;86.37;99464.84;4187108;28;20364;-71
2022/03/07 05:11:54;;;;;;;7.65;5.10;;;;;;;-3.20;86.10;99467.28;4189091;28;20163;-71
2022/03/07 05:13:54;;;;;;;7.45;5.20;;;;;;;-3.19;86.21;99457.25;4187775;28;20481;-71
2022/03/07 05:15:54;;;;;;;9.43;4.95;;;;;;;-3.18;85.71;99469.72;4192307;28;20024;-71
2022/03/07 05:17:56;;;;;;;7.93;5.20;;;;;;;-3.20;85.61;99467.28;4186926;28;20044;-71
2022/03/07 05:19:56;;;;;;;7.00;4.43;;;;;;;-3.18;85.99;99464.28;4187424;28;20473;-71
2022/03/07 05:21:56;;;;;;;9.27;5.03;;;;;;;-3.21;85.16;99465.66;4199059;28;20560;-71
2022/03/07 05:23:56;;;;;;;8.68;5.32;;;;;;;-3.19;84.90;99473.50;4202193;28;20113;-71
2022/03/07 05:25:57;;;;;;;9.30;5.53;;;;;;;-3.19;84.99;99473.50;4202517;28;20177;-71
2022/03/07 05:27:57;;;;;;;13.48;8.07;;;;;;;-3.19;84.64;99468.09;4201539;28;20038;-71
2022/03/07 05:29:57;;;;;;;12.98;7.20;;;;;;;-3.20;84.53;99464.56;4197311;28;20036;-71
2022/03/07 05:31:58;;;;;;;9.45;6.38;;;;;;;-3.20;84.81;99463.75;4191134;28;20127;-71
2022/03/07 05:33:58;;;;;;;10.70;6.82;;;;;;;-3.15;83.94;99475.41;4194554;28;20044;-71
2022/03/07 05:35:58;;;;;;;10.27;6.85;;;;;;;-3.15;83.78;99474.59;4186927;28;20442;-71
2022/03/07 05:37:59;;;;;;;8.23;5.80;;;;;;;-3.16;83.68;99478.38;4186410;28;20298;-71
2022/03/07 05:39:59;;;;;;;15.38;6.05;;;;;;;-3.19;83.72;99463.47;4186738;28;20070;-71
2022/03/07 05:42:00;;;;;;;8.43;5.60;;;;;;;-3.15;84.23;99474.59;4187350;28;20086;-71
2022/03/07 05:44:00;;;;;;;10.63;6.05;;;;;;;-3.12;83.68;99480.31;4187099;28;20047;-71
2022/03/07 05:46:00;;;;;;;10.55;6.20;;;;;;;-3.13;83.46;99481.38;4200936;28;20592;-71
2022/03/07 05:48:01;;;;;;;11.32;6.45;;;;;;;-3.07;83.47;99478.69;4194067;28;20375;-71
2022/03/07 05:50:03;;;;;;;6.80;5.25;;;;;;;-3.09;83.66;99475.44;4186828;28;20032;-72
2022/03/07 05:52:04;;;;;;;10.52;6.00;;;;;;;-3.11;83.23;99473.81;4187104;28;20040;-71
2022/03/07 05:54:04;;;;;;;9.30;5.80;;;;;;;-3.11;83.17;99481.94;4188687;28;20028;-71
2022/03/07 05:56:05;;;;;;;11.90;9.65;;;;;;;-3.12;82.76;99484.91;4201994;28;20107;-71
2022/03/07 05:58:05;;;;;;;14.57;8.02;;;;;;;-3.13;83.52;99480.56;4200991;28;20483;-71
2022/03/07 06:00:08;;;;;;;15.90;8.32;;;;;;;-3.12;83.85;99483.00;4200701;28;20356;-71
2022/03/07 06:02:08;;;;;;;8.95;6.03;;;;;;;-3.09;83.38;99491.69;4201917;28;20559;-71
2022/03/07 06:04:09;;;;;;;13.73;7.32;;;;;;;-3.09;83.71;99488.97;4195255;28;20058;-71
2022/03/07 06:06:09;;;;;;;12.15;6.65;;;;;;;-3.11;83.67;99497.34;4196314;28;20448;-71
2022/03/07 06:08:10;;;;;;;10.10;6.50;;;;;;;-3.13;83.28;99494.91;4192334;28;20111;-71
2022/03/07 06:10:10;;;;;;;12.50;7.05;;;;;;;-3.10;84.21;99507.09;4187249;28;20242;-71
2022/03/07 06:12:10;;;;;;;14.50;8.23;;;;;;;-3.08;83.75;99504.94;4194339;28;20348;-71
2022/03/07 06:14:11;;;;;;;11.02;6.13;;;;;;;-3.09;83.89;99506.03;4200756;28;20101;-71
2022/03/07 06:16:11;;;;;;;12.15;6.28;;;;;;;-3.08;84.24;99510.34;4202011;28;20468;-71
2022/03/07 06:18:12;;;;;;;12.52;6.88;;;;;;;-3.08;84.28;99504.13;4185943;28;20097;-71
2022/03/07 06:20:13;;;;;;;12.52;6.35;;;;;;;-3.08;84.57;99510.34;4185980;28;20036;-71
2022/03/07 06:22:13;;;;;;;12.95;6.18;;;;;;;-3.08;84.72;99513.06;4190053;28;20487;-71
2022/03/07 06:24:13;;;;;;;14.52;7.78;;;;;;;-3.11;85.33;99511.72;4186625;28;20358;-71
2022/03/07 06:26:14;;;;;;;11.90;6.82;;;;;;;-3.05;85.44;99520.69;4186502;28;20485;-71
2022/03/07 06:28:14;;;;;;;11.30;6.72;;;;;;;-3.03;85.03;99523.13;4185290;28;20507;-71
2022/03/07 06:30:15;;;;;;;11.07;7.13;;;;;;;-3.04;85.33;99525.00;4186562;28;20129;-71
2022/03/07 06:32:15;;;;;;;31.17;14.98;;;;;;;-3.02;84.49;99522.84;4186045;28;20279;-71
2022/03/07 06:34:16;;;;;;;24.65;14.40;;;;;;;-3.01;85.11;99519.06;4186170;28;20029;-71
2022/03/07 06:36:16;;;;;;;25.70;15.32;;;;;;;-2.99;85.33;99526.91;4126412;28;20105;-71
2022/03/07 06:38:19;;;;;;;16.58;10.02;;;;;;;-2.97;85.02;99528.31;4191508;28;20402;-71
2022/03/07 06:40:20;;;;;;;;;;;;;;;-2.92;84.46;99525.59;4186665;28;20032;-71
2022/03/07 06:42:20;;;;;;;14.18;8.10;;;;;;;-2.93;83.63;99526.69;4185898;28;19924;-71
2022/03/07 06:44:22;;;;;;;12.32;6.55;;;;;;;-2.89;84.46;99526.97;4186591;28;20158;-71
2022/03/07 06:46:22;;;;;;;10.23;5.35;;;;;;;-2.89;84.74;99527.78;4186041;28;20063;-71
2022/03/07 06:48:22;;;;;;;8.70;5.45;;;;;;;-2.88;84.89;99529.41;4185730;28;20079;-71
2022/03/07 06:50:23;;;;;;;8.50;5.43;;;;;;;-2.84;84.83;99538.63;4185733;28;20052;-71
2022/03/07 06:52:25;;;;;;;10.00;5.28;;;;;;;-2.82;85.48;99541.88;4193953;28;20042;-71
2022/03/07 06:54:25;;;;;;;9.20;5.53;;;;;;;-2.78;85.09;99546.78;4191292;28;20039;-71
2022/03/07 06:56:25;;;;;;;9.07;6.05;;;;;;;-2.74;84.80;99545.16;4185404;28;20538;-71
2022/03/07 06:58:26;;;;;;;8.85;5.40;;;;;;;-2.73;85.13;99539.50;4195127;28;20078;-71
2022/03/07 07:00:26;;;;;;;6.78;5.10;;;;;;;-2.68;85.13;99542.22;4201037;28;20047;-71
2022/03/07 07:02:26;;;;;;;6.55;4.88;;;;;;;-2.65;84.79;99544.41;4185504;28;20373;-71
2022/03/07 07:04:27;;;;;;;8.90;5.20;;;;;;;-2.61;84.19;99544.69;4188369;28;20296;-71
2022/03/07 07:06:27;;;;;;;8.65;5.15;;;;;;;-2.57;83.99;99546.59;4185269;28;20056;-71
2022/03/07 07:08:27;;;;;;;8.13;4.72;;;;;;;-2.53;83.48;99541.47;4184104;28;20524;-71
2022/03/07 07:10:27;;;;;;;6.75;5.18;;;;;;;-2.49;83.20;99550.69;4184289;28;20056;-71
2022/03/07 07:12:28;;;;;;;7.93;5.70;;;;;;;-2.46;82.99;99552.06;4182253;28;20151;-71
2022/03/07 07:14:29;;;;;;;8.52;5.30;;;;;;;-2.44;82.36;99548.00;4190419;28;20044;-71
2022/03/07 07:16:29;;;;;;;9.63;5.20;;;;;;;-2.39;82.28;99549.91;4186147;28;20688;-71
2022/03/07 07:18:29;;;;;;;8.32;5.38;;;;;;;-2.36;82.03;99562.94;4187929;28;20120;-71
2022/03/07 07:20:29;;;;;;;7.70;4.70;;;;;;;-2.33;81.91;99557.78;4189748;28;20191;-71
2022/03/07 07:22:30;;;;;;;8.82;5.15;;;;;;;-2.28;81.37;99546.94;4190392;28;20988;-71
2022/03/07 07:24:30;;;;;;;7.68;5.10;;;;;;;-2.23;80.70;99551.59;4193825;28;20119;-71
2022/03/07 07:26:31;;;;;;;8.45;5.25;;;;;;;-2.23;80.21;99551.59;4193768;28;20624;-71
2022/03/07 07:28:32;;;;;;;7.43;5.03;;;;;;;-2.18;80.37;99551.56;4188620;28;20044;-71
2022/03/07 07:30:32;;;;;;;8.02;5.05;;;;;;;-2.14;79.81;99560.00;4187524;28;20508;-71
2022/03/07 07:32:33;;;;;;;6.80;5.00;;;;;;;-2.10;78.66;99561.09;4184946;28;20356;-71
2022/03/07 07:34:34;;;;;;;7.43;5.43;;;;;;;-2.11;77.86;99556.75;4190291;28;20048;-71
2022/03/07 07:36:34;;;;;;;8.90;5.80;;;;;;;-2.08;78.22;99570.56;4186233;28;20052;-71
2022/03/07 07:38:34;;;;;;;9.52;6.35;;;;;;;-2.05;78.45;99569.25;4186791;28;20059;-71
2022/03/07 07:40:35;;;;;;;9.20;5.90;;;;;;;-2.02;78.26;99563.25;4187483;28;20056;-71
2022/03/07 07:42:36;;;;;;;9.77;5.53;;;;;;;-1.98;77.61;99565.19;4197617;28;20044;-71
2022/03/07 07:44:37;;;;;;;9.02;6.00;;;;;;;-1.94;77.64;99559.22;4191296;28;20032;-71
2022/03/07 07:46:38;;;;;;;16.13;8.05;;;;;;;-1.94;77.66;99560.03;4186003;28;20094;-71
2022/03/07 07:48:38;;;;;;;13.77;8.05;;;;;;;-1.93;77.20;99564.34;4189053;28;20094;-71
2022/03/07 07:50:39;;;;;;;10.98;6.55;;;;;;;-1.91;77.53;99569.50;4191430;28;20291;-71
2022/03/07 07:52:39;;;;;;;8.65;6.28;;;;;;;-1.87;77.13;99573.31;4188411;28;20651;-71
2022/03/07 07:54:40;;;;;;;9.32;5.97;;;;;;;-1.82;77.08;99582.28;4186530;28;20055;-71
2022/03/07 07:56:40;;;;;;;11.85;7.32;;;;;;;-1.80;76.00;99574.69;4183853;28;20044;-71
2022/03/07 07:58:41;;;;;;;11.13;6.32;;;;;;;-1.76;75.72;99577.66;4186760;28;20052;-71
2022/03/07 08:00:41;;;;;;;11.02;6.53;;;;;;;-1.72;76.51;99576.88;4187193;28;20062;-71
2022/03/07 08:02:42;;;;;;;9.07;5.70;;;;;;;-1.61;75.63;99585.00;4188643;28;20093;-70
2022/03/07 08:04:42;;;;;;;8.27;5.93;;;;;;;-1.60;75.09;99578.50;4187670;28;20469;-70
2022/03/07 08:06:43;;;;;;;8.23;6.03;;;;;;;-1.53;75.22;99582.56;4187185;28;20048;-71
2022/03/07 08:08:43;;;;;;;8.85;5.82;;;;;;;-1.53;72.54;99576.31;4191373;28;20479;-71
2022/03/07 08:10:44;;;;;;;9.77;4.80;;;;;;;-1.55;72.78;99579.31;4188280;28;20475;-71
2022/03/07 08:12:45;;;;;;;9.20;6.78;;;;;;;-1.58;72.55;99577.13;4186991;28;20430;-71
2022/03/07 08:14:45;;;;;;;7.63;5.20;;;;;;;-1.58;73.02;99579.84;4185959;28;20127;-71
2022/03/07 08:16:46;;;;;;;8.68;5.63;;;;;;;-1.58;72.10;99577.13;4185128;28;20137;-71
2022/03/07 08:18:46;;;;;;;8.75;5.60;;;;;;;-1.50;73.16;99581.19;4185252;28;20373;-71
2022/03/07 08:20:47;;;;;;;9.85;5.45;;;;;;;-1.45;74.04;99573.06;4186612;28;20086;-70
2022/03/07 08:22:48;;;;;;;7.78;5.68;;;;;;;-1.44;73.33;99586.34;4192893;28;20041;-70
2022/03/07 08:24:49;;;;;;;10.75;6.45;;;;;;;-1.42;71.79;99588.78;4191765;28;20377;-70
2022/03/07 08:26:50;;;;;;;9.15;5.82;;;;;;;-1.40;72.67;99573.06;4188878;28;20302;-70
2022/03/07 08:28:50;;;;;;;9.63;6.28;;;;;;;-1.35;72.91;99583.09;4190513;28;20329;-70
2022/03/07 08:30:51;;;;;;;8.20;5.63;;;;;;;-1.34;71.17;99584.72;4191394;28;20029;-70
2022/03/07 08:32:51;;;;;;;7.47;5.72;;;;;;;-1.36;70.06;99570.63;4190067;28;20134;-70
2022/03/07 08:34:52;;;;;;;9.20;5.88;;;;;;;-1.35;69.83;99585.81;4189622;28;20055;-71
2022/03/07 08:36:52;;;;;;;7.95;5.72;;;;;;;-1.33;67.95;99581.72;4181899;28;20506;-71
2022/03/07 08:38:53;;;;;;;7.90;5.47;;;;;;;-1.29;65.74;99582.00;4184646;28;20040;-71
2022/03/07 08:40:54;;;;;;;6.28;4.78;;;;;;;-1.25;66.13;99591.22;4186720;28;20127;-70
2022/03/07 08:42:54;;;;;;;6.95;5.20;;;;;;;-1.24;66.65;99592.84;4186037;28;20052;-70
2022/03/07 08:44:54;;;;;;;8.07;5.30;;;;;;;-1.20;65.01;99596.66;4184452;28;20042;-70
2022/03/07 08:46:55;;;;;;;7.72;5.65;;;;;;;-1.13;67.04;99591.78;4188200;28;20044;-71
2022/03/07 08:48:55;;;;;;;10.13;5.82;;;;;;;-1.10;66.04;99593.94;4187809;28;20059;-71
2022/03/07 08:50:56;;;;;;;10.88;5.57;;;;;;;-1.05;64.87;99593.94;4190607;28;20127;-70
2022/03/07 08:52:56;;;;;;;7.55;5.50;;;;;;;-0.99;66.17;99602.91;4188516;28;20036;-70
2022/03/07 08:54:58;;;;;;;7.93;5.45;;;;;;;-0.94;63.89;99602.88;4186250;28;20070;-71
2022/03/07 08:56:58;;;;;;;8.35;4.65;;;;;;;-0.93;61.54;99597.16;4182969;28;20040;-71
2022/03/07 08:58:59;;;;;;;8.07;4.68;;;;;;;-0.94;62.28;99605.56;4185929;28;20598;-70
2022/03/07 09:00:59;;;;;;;7.85;5.72;;;;;;;-0.95;62.95;99599.34;4190663;28;20045;-70
2022/03/07 09:02:59;;;;;;;8.48;5.68;;;;;;;-0.97;63.04;99596.09;4193718;28;20032;-70
2022/03/07 09:05:00;;;;;;;8.00;5.35;;;;;;;-0.96;61.53;99597.72;4183475;28;20794;-70
2022/03/07 09:07:00;;;;;;;7.10;5.03;;;;;;;-0.89;62.51;99602.88;4188851;28;20165;-70
2022/03/07 09:09:00;;;;;;;8.02;5.65;;;;;;;-0.78;62.50;99598.22;4192027;28;20040;-70
2022/03/07 09:11:01;;;;;;;7.72;5.25;;;;;;;-0.74;61.73;99593.88;4191840;28;20578;-70
2022/03/07 09:13:01;;;;;;;7.53;5.30;;;;;;;-0.75;62.14;99597.66;4191575;28;20044;-70
2022/03/07 09:15:04;;;;;;;8.43;5.32;;;;;;;-0.71;63.99;99594.13;4192057;28;20261;-70
2022/03/07 09:17:04;;;;;;;9.40;5.93;;;;;;;-0.64;63.86;99593.81;4192679;28;20259;-70
2022/03/07 09:19:05;;;;;;;7.38;5.65;;;;;;;-0.64;62.97;99588.38;4192425;28;20037;-70
2022/03/07 09:21:05;;;;;;;9.70;6.35;;;;;;;-0.61;65.78;99594.06;4191188;28;20665;-70
2022/03/07 09:23:06;;;;;;;9.63;6.03;;;;;;;-0.54;64.02;99591.06;4191957;28;20737;-70
2022/03/07 09:25:06;;;;;;;8.00;5.57;;;;;;;-0.51;63.91;99585.06;4193054;28;20060;-70